Vermont, Illinois
Current Conditions -  °F | °C
As of 4:35 PM on Wednesday 22 Oct 2014 (Local Time) from KMQB Reporting Station
Clear Clear  
Wind Chill: 61°   Ceiling: Unl
Heat Index: 61°   Visibility: 10mi
Dew Point: 39°   Wind: 9mph
Humidity: 44%   Direction: 150°SSE
Pressure: 30.25"   Gusts: NA
Location:  40.29°N, 90.43°W
Report Text: KMQB 222135Z AUTO 15008KT 10SM CLR 16/04 A3025 RMK AO2 T01610039
Loading
Personal Weather Stations






























Interactive Weather Map
Tropical Storm Tracking
New forecast layout! Learn more

10-Day Weather Forecast

Advertisements
Track Severe Weather on mobile